Terminal Aerodrome Forecast
Issued by NWS

Home | Current Version | Previous Version | Text Only | Print | Product List | Glossary On
Versions: 1 2 3 4 5 6 7 8 9 10 11 12
000
FTUS46 KMFR 022337
TAFLMT
TAF
KLMT 022337Z 0300/0324 28015KT P6SM FEW060 SCT200
     FM030800 34006KT P6SM BKN040
     FM032100 33010G18KT P6SM BKN200=

USA.gov is the U.S. government's official web portal to all federal, state and local government web resources and services.